Página principal
METAR-TAF:

METAR-TAF

Aeroportos :

Kimble County Airport

Junction, Texas, Estados Unidos

latitude: 30-30-39N, longitude: 099-45-59W, altura: 527 m

Observação actual do tempo

O boletim foi feito há 52 minutos, às 19:51 UTC
Vento 5 kt de oes-sudoeste
Temperatura 17°C
Humidade 63%
Pressão 1013 hPa
Visibilidade: 16.1 km
Céu limpo

METAR: KJCT 121951Z AUTO 24005KT 10SM CLR 17/10 A2991 RMK AO2 SLP108 T01720100

Hora: 14:43 (20:43 UTC)

Previsão

O boletim foi feito há 3 horas e 20 minutos, às 17:23 UTC
Previsão válida de 12 às 18 UTC a 13 às 18 UTC
Vento 10 kt de sudoeste
Visibilidade: 10 km
Nuvens fragmentadasa uma altura de 20000 ft
A partir de 13 às 1500 UTC
Vento 15 kt de noroeste com rajadas de 25 kt
Visibilidade: 10 km
Encobertoa uma altura de 20000 ft

TAF: KJCT 121723Z 1218/1318 22010KT P6SM BKN200 FM131500 31015G25KT P6SM OVC200

Observações e previsões do tempo de mais de 4000 aeroportos (mensagens METAR e TAF).

As estações disponíveis são os pontos amarelos e vermelhos sobre o mapa.

Mova o rato sobre o mapa para ver o nome da estação.

Depois clique no ponto para visualizar as observações e previsões meteorológicas.

Para alterar o mapa : clique nos botões verdes com uma cruz preta para aumentar o zoom; no botão verde com uma pitada de zoom; ou nas setas verdes para mapas adjacentes.


METAR-TAF: